Baycat — WDA9210 — position and weather

sailwx.info

Track history (hours):
 
Tides and Currents Weather Stations Pressure Air Temp Water Temp Dewpoint Dewpoint Depression Visibility Wind Speed Wind Dir Waves Ship Positions

Baycat

Owner: TAURUS MARINE, SAN FRANCISCO, CA. More information available from US FCC via Universal Licensing System and Coast Guard Vessel Documentation Center.

Last reported at 2017-Oct-18 22:30 UTC. Time now 2017-Oct-18 22:34 UTC.
Position N 37°48' W 122°23'.

Length 14 m; draft 2 m.

Type: Tug. MMSI: 366862680.

Date/timePositionNaut miles runAvg speedWind from/ knotsBaromVisibWave heightAir tempDewpointWater temp
2017-Oct-18 22:30N 37°48' W 122°23'2 3.9
2017-Oct-18 22:00N 37°47' W 122°21'3 5.2
2017-Oct-18 21:30N 37°47' W 122°18'0 0.0
2017-Oct-18 21:00N 37°47' W 122°18'0 0.0
2017-Oct-18 20:30N 37°47' W 122°18'0 0.0
2017-Oct-18 20:00N 37°47' W 122°18'0 0.0
2017-Oct-18 19:30N 37°47' W 122°18'1 2.3
2017-Oct-18 19:00N 37°47' W 122°19'1 2.4
2017-Oct-18 18:30N 37°48' W 122°19'1 2.4
2017-Oct-18 18:00N 37°48' W 122°17'0 0.0
2017-Oct-18 17:30N 37°48' W 122°17'0 0.7
2017-Oct-18 17:00N 37°48' W 122°18'1 2.4
2017-Oct-18 16:30N 37°48' W 122°19'1 2.4
2017-Oct-18 16:00N 37°47' W 122°20'2 3.4
2017-Oct-18 15:30N 37°47' W 122°18'0 0.7
2017-Oct-18 15:00N 37°47' W 122°18'0 0.4
2017-Oct-18 14:00N 37°46' W 122°18'2 3.4
2017-Oct-18 13:30N 37°46' W 122°20'2 0.3
2017-Oct-18 04:41N 37°46' W 122°23'0 0.0
2017-Oct-18 04:30N 37°46' W 122°23'2 4.5
2017-Oct-18 04:01N 37°49' W 122°24'1 3.0
2017-Oct-18 03:30N 37°50' W 122°25'1 2.1
2017-Oct-18 03:00N 37°49' W 122°24'3 5.1
2017-Oct-18 02:30N 37°47' W 122°23'1 1.6
2017-Oct-18 02:00N 37°47' W 122°22'3 5.7
2017-Oct-18 01:31N 37°48' W 122°19'0 0.0
2017-Oct-18 01:00N 37°48' W 122°19'0 0.0
2017-Oct-18 00:31N 37°48' W 122°19'0 0.0
2017-Oct-18 00:00N 37°48' W 122°19'0 0.0
2017-Oct-17 23:30N 37°48' W 122°19'0 0.0
2017-Oct-17 23:00N 37°48' W 122°19'0 0.0
2017-Oct-17 22:30N 37°48' W 122°19'0 0.1
2017-Oct-17 22:01N 37°48' W 122°19'0 0.0
2017-Oct-17 21:31N 37°48' W 122°19'0 0.0
2017-Oct-17 21:00N 37°48' W 122°19'0 0.0
2017-Oct-17 20:30N 37°48' W 122°19'0 0.0
2017-Oct-17 20:01N 37°48' W 122°19'0 0.0
2017-Oct-17 19:31N 37°48' W 122°19'0 0.0
2017-Oct-17 19:00N 37°48' W 122°19'2 3.8
2017-Oct-17 18:30N 37°48' W 122°21'2 4.3
2017-Oct-17 18:00N 37°46' W 122°23'0 0.0
2017-Oct-17 17:30N 37°46' W 122°23'0 0.0
2017-Oct-16 22:12N 37°46' W 122°23'0 2.1
2017-Oct-16 22:00N 37°47' W 122°23'4 7.4
2017-Oct-16 21:30N 37°46' W 122°18'0 0.0
2017-Oct-16 21:00N 37°46' W 122°18'0 0.1
2017-Oct-16 20:30N 37°46' W 122°18'0 0.0
2017-Oct-16 20:00N 37°46' W 122°18'0 0.0
2017-Oct-16 19:30N 37°46' W 122°18'0 0.0
2017-Oct-16 19:00N 37°46' W 122°18'0 0.0
2017-Oct-16 18:30N 37°46' W 122°18'0 0.0
2017-Oct-16 18:00N 37°46' W 122°18'0 0.0
2017-Oct-16 17:30N 37°46' W 122°18'0 0.7
2017-Oct-16 17:00N 37°47' W 122°18'0 0.1
2017-Oct-16 16:30N 37°47' W 122°18'3 6.9
2017-Oct-16 16:00N 37°47' W 122°22'1 1.0
2017-Oct-16 15:30N 37°46' W 122°23'2 4.6
2017-Oct-16 15:00N 37°46' W 122°20'0 0.0
2017-Oct-16 14:00N 37°46' W 122°20'0 0.0
2017-Oct-16 13:30N 37°46' W 122°20'0 0.0
2017-Oct-16 13:00N 37°46' W 122°20'0 0.1
2017-Oct-16 12:30N 37°46' W 122°20'0 0.2
2017-Oct-16 12:00N 37°46' W 122°20'0 0.4
2017-Oct-16 11:30N 37°46' W 122°21'0 0.1
2017-Oct-16 11:00N 37°46' W 122°20'2 4.0
2017-Oct-16 10:30N 37°47' W 122°23'0 0.4
2017-Oct-16 10:00N 37°46' W 122°23'  
2017-Oct-13 19:59N 37°46' W 122°23'3 5.7
2017-Oct-13 19:31N 37°49' W 122°24'4 7.9
2017-Oct-13 19:01N 37°53' W 122°24'3 5.1
2017-Oct-13 18:31N 37°55' W 122°22'0 0.5
2017-Oct-13 18:00N 37°55' W 122°22'2 4.2
2017-Oct-13 17:31N 37°54' W 122°24'3 5.4
2017-Oct-13 17:00N 37°51' W 122°24'3 6.7
2017-Oct-13 16:30N 37°48' W 122°23'0 0.0
2017-Oct-13 16:01N 37°48' W 122°23'0 0.0
2017-Oct-13 15:31N 37°48' W 122°23'0 0.0
2017-Oct-13 15:01N 37°48' W 122°23'0 0.0
2017-Oct-13 14:30N 37°48' W 122°23'2 4.7
2017-Oct-13 14:01N 37°50' W 122°23'3 6.8
2017-Oct-13 13:30N 37°54' W 122°24'2 4.5
2017-Oct-13 13:00N 37°55' W 122°22'1 2.4
2017-Oct-13 12:30N 37°54' W 122°23'4 7.7
2017-Oct-13 12:00N 37°51' W 122°23'4 7.1
2017-Oct-13 11:31N 37°47' W 122°23'1 1.1
2017-Oct-13 11:00N 37°46' W 122°23'0 0.0
2017-Oct-12 11:46N 37°46' W 122°23'0 0.6
2017-Oct-12 11:30N 37°47' W 122°23'2 4.4
2017-Oct-12 11:00N 37°46' W 122°20'0 0.0
2017-Oct-12 10:30N 37°46' W 122°20'0 0.0
2017-Oct-12 10:00N 37°46' W 122°20'0 0.0
2017-Oct-12 09:31N 37°46' W 122°20'0 0.0
2017-Oct-12 09:01N 37°46' W 122°20'0 0.0
2017-Oct-12 08:30N 37°46' W 122°20'0 0.1
2017-Oct-12 08:01N 37°46' W 122°20'0 0.1
2017-Oct-12 07:31N 37°46' W 122°20'0 0.3
2017-Oct-12 07:00N 37°46' W 122°21'2 4.0
2017-Oct-12 06:31N 37°47' W 122°23'  
Track history (hours):
 
Tides and Currents Weather Stations Pressure Air Temp Water Temp Dewpoint Dewpoint Depression Visibility Wind Speed Wind Dir Waves Ship Positions

Baycat

Owner: TAURUS MARINE, SAN FRANCISCO, CA. More information available from US FCC via Universal Licensing System and Coast Guard Vessel Documentation Center.

Last reported at 2017-Oct-18 22:30 UTC. Time now 2017-Oct-18 22:34 UTC.
Position N 37°48' W 122°23'.

Length 14 m; draft 2 m.

Type: Tug. MMSI: 366862680.

Date/timePositionNaut miles runAvg speedWind from/ knotsBaromVisibWave heightAir tempDewpointWater temp
2017-Oct-18 22:30N 37°48' W 122°23'2 3.9
2017-Oct-18 22:00N 37°47' W 122°21'3 5.2
2017-Oct-18 21:30N 37°47' W 122°18'0 0.0
2017-Oct-18 21:00N 37°47' W 122°18'0 0.0
2017-Oct-18 20:30N 37°47' W 122°18'0 0.0
2017-Oct-18 20:00N 37°47' W 122°18'0 0.0
2017-Oct-18 19:30N 37°47' W 122°18'1 2.3
2017-Oct-18 19:00N 37°47' W 122°19'1 2.4
2017-Oct-18 18:30N 37°48' W 122°19'1 2.4
2017-Oct-18 18:00N 37°48' W 122°17'0 0.0
2017-Oct-18 17:30N 37°48' W 122°17'0 0.7
2017-Oct-18 17:00N 37°48' W 122°18'1 2.4
2017-Oct-18 16:30N 37°48' W 122°19'1 2.4
2017-Oct-18 16:00N 37°47' W 122°20'2 3.4
2017-Oct-18 15:30N 37°47' W 122°18'0 0.7
2017-Oct-18 15:00N 37°47' W 122°18'0 0.4
2017-Oct-18 14:00N 37°46' W 122°18'2 3.4
2017-Oct-18 13:30N 37°46' W 122°20'2 0.3
2017-Oct-18 04:41N 37°46' W 122°23'0 0.0
2017-Oct-18 04:30N 37°46' W 122°23'2 4.5
2017-Oct-18 04:01N 37°49' W 122°24'1 3.0
2017-Oct-18 03:30N 37°50' W 122°25'1 2.1
2017-Oct-18 03:00N 37°49' W 122°24'3 5.1
2017-Oct-18 02:30N 37°47' W 122°23'1 1.6
2017-Oct-18 02:00N 37°47' W 122°22'3 5.7
2017-Oct-18 01:31N 37°48' W 122°19'0 0.0
2017-Oct-18 01:00N 37°48' W 122°19'0 0.0
2017-Oct-18 00:31N 37°48' W 122°19'0 0.0
2017-Oct-18 00:00N 37°48' W 122°19'0 0.0
2017-Oct-17 23:30N 37°48' W 122°19'0 0.0
2017-Oct-17 23:00N 37°48' W 122°19'0 0.0
2017-Oct-17 22:30N 37°48' W 122°19'0 0.1
2017-Oct-17 22:01N 37°48' W 122°19'0 0.0
2017-Oct-17 21:31N 37°48' W 122°19'0 0.0
2017-Oct-17 21:00N 37°48' W 122°19'0 0.0
2017-Oct-17 20:30N 37°48' W 122°19'0 0.0
2017-Oct-17 20:01N 37°48' W 122°19'0 0.0
2017-Oct-17 19:31N 37°48' W 122°19'0 0.0
2017-Oct-17 19:00N 37°48' W 122°19'2 3.8
2017-Oct-17 18:30N 37°48' W 122°21'2 4.3
2017-Oct-17 18:00N 37°46' W 122°23'0 0.0
2017-Oct-17 17:30N 37°46' W 122°23'0 0.0
2017-Oct-16 22:12N 37°46' W 122°23'0 2.1
2017-Oct-16 22:00N 37°47' W 122°23'4 7.4
2017-Oct-16 21:30N 37°46' W 122°18'0 0.0
2017-Oct-16 21:00N 37°46' W 122°18'0 0.1
2017-Oct-16 20:30N 37°46' W 122°18'0 0.0
2017-Oct-16 20:00N 37°46' W 122°18'0 0.0
2017-Oct-16 19:30N 37°46' W 122°18'0 0.0
2017-Oct-16 19:00N 37°46' W 122°18'0 0.0
2017-Oct-16 18:30N 37°46' W 122°18'0 0.0
2017-Oct-16 18:00N 37°46' W 122°18'0 0.0
2017-Oct-16 17:30N 37°46' W 122°18'0 0.7
2017-Oct-16 17:00N 37°47' W 122°18'0 0.1
2017-Oct-16 16:30N 37°47' W 122°18'3 6.9
2017-Oct-16 16:00N 37°47' W 122°22'1 1.0
2017-Oct-16 15:30N 37°46' W 122°23'2 4.6
2017-Oct-16 15:00N 37°46' W 122°20'0 0.0
2017-Oct-16 14:00N 37°46' W 122°20'0 0.0
2017-Oct-16 13:30N 37°46' W 122°20'0 0.0
2017-Oct-16 13:00N 37°46' W 122°20'0 0.1
2017-Oct-16 12:30N 37°46' W 122°20'0 0.2
2017-Oct-16 12:00N 37°46' W 122°20'0 0.4
2017-Oct-16 11:30N 37°46' W 122°21'0 0.1
2017-Oct-16 11:00N 37°46' W 122°20'2 4.0
2017-Oct-16 10:30N 37°47' W 122°23'0 0.4
2017-Oct-16 10:00N 37°46' W 122°23'  
2017-Oct-13 19:59N 37°46' W 122°23'3 5.7
2017-Oct-13 19:31N 37°49' W 122°24'4 7.9
2017-Oct-13 19:01N 37°53' W 122°24'3 5.1
2017-Oct-13 18:31N 37°55' W 122°22'0 0.5
2017-Oct-13 18:00N 37°55' W 122°22'2 4.2
2017-Oct-13 17:31N 37°54' W 122°24'3 5.4
2017-Oct-13 17:00N 37°51' W 122°24'3 6.7
2017-Oct-13 16:30N 37°48' W 122°23'0 0.0
2017-Oct-13 16:01N 37°48' W 122°23'0 0.0
2017-Oct-13 15:31N 37°48' W 122°23'0 0.0
2017-Oct-13 15:01N 37°48' W 122°23'0 0.0
2017-Oct-13 14:30N 37°48' W 122°23'2 4.7
2017-Oct-13 14:01N 37°50' W 122°23'3 6.8
2017-Oct-13 13:30N 37°54' W 122°24'2 4.5
2017-Oct-13 13:00N 37°55' W 122°22'1 2.4
2017-Oct-13 12:30N 37°54' W 122°23'4 7.7
2017-Oct-13 12:00N 37°51' W 122°23'4 7.1
2017-Oct-13 11:31N 37°47' W 122°23'1 1.1
2017-Oct-13 11:00N 37°46' W 122°23'0 0.0
2017-Oct-12 11:46N 37°46' W 122°23'0 0.6
2017-Oct-12 11:30N 37°47' W 122°23'2 4.4
2017-Oct-12 11:00N 37°46' W 122°20'0 0.0
2017-Oct-12 10:30N 37°46' W 122°20'0 0.0
2017-Oct-12 10:00N 37°46' W 122°20'0 0.0
2017-Oct-12 09:31N 37°46' W 122°20'0 0.0
2017-Oct-12 09:01N 37°46' W 122°20'0 0.0
2017-Oct-12 08:30N 37°46' W 122°20'0 0.1
2017-Oct-12 08:01N 37°46' W 122°20'0 0.1
2017-Oct-12 07:31N 37°46' W 122°20'0 0.3
2017-Oct-12 07:00N 37°46' W 122°21'2 4.0
2017-Oct-12 06:31N 37°47' W 122°23'  

Dump ship's entire track history